createdAt,value
2023-02-13T00:00:55.011Z,17.10
2023-02-13T00:03:24.842Z,17.20
2023-02-13T00:05:52.828Z,17.10
2023-02-13T00:08:20.736Z,17.10
2023-02-13T00:10:48.802Z,17.10
2023-02-13T00:13:16.858Z,17.00
2023-02-13T00:15:45.110Z,17.00
2023-02-13T00:18:13.004Z,17.00
2023-02-13T00:20:42.208Z,17.00
2023-02-13T00:23:10.069Z,17.00
2023-02-13T00:25:38.058Z,17.00
2023-02-13T00:28:06.059Z,17.00
2023-02-13T00:30:34.069Z,17.00
2023-02-13T00:33:02.013Z,17.00
2023-02-13T00:35:29.931Z,17.00
2023-02-13T00:37:59.218Z,17.00
2023-02-13T00:40:27.121Z,17.00
2023-02-13T00:42:55.021Z,17.00
2023-02-13T00:45:22.927Z,17.00
2023-02-13T00:47:50.838Z,16.90
2023-02-13T00:50:21.746Z,17.00
2023-02-13T00:52:49.687Z,17.10
2023-02-13T00:55:19.113Z,17.20
2023-02-13T00:57:47.034Z,17.20
2023-02-13T01:00:16.416Z,17.20
2023-02-13T01:02:44.314Z,17.20
2023-02-13T01:05:12.280Z,17.20
2023-02-13T01:07:40.492Z,17.10
2023-02-13T01:10:08.793Z,17.10
2023-02-13T01:12:38.066Z,17.10
2023-02-13T01:15:08.602Z,17.10
2023-02-13T01:17:36.518Z,17.00
2023-02-13T01:20:04.628Z,17.00
2023-02-13T01:22:32.470Z,17.00
2023-02-13T01:25:00.381Z,17.00
2023-02-13T01:27:32.395Z,17.00
2023-02-13T01:30:01.617Z,17.00
2023-02-13T01:32:30.750Z,17.00
2023-02-13T01:34:58.663Z,17.00
2023-02-13T01:37:26.659Z,17.00
2023-02-13T01:39:56.354Z,17.10
2023-02-13T01:42:26.561Z,17.20
2023-02-13T01:44:55.968Z,17.20
2023-02-13T01:47:27.181Z,17.20
2023-02-13T01:50:01.001Z,17.10
2023-02-13T01:52:28.979Z,17.10
2023-02-13T01:54:57.200Z,17.10
2023-02-13T01:57:25.430Z,17.10
2023-02-13T01:59:54.274Z,17.10
2023-02-13T02:02:22.475Z,17.10
2023-02-13T02:04:51.824Z,17.00
2023-02-13T02:07:22.562Z,17.00
2023-02-13T02:09:50.884Z,17.00
2023-02-13T02:12:22.443Z,17.00
2023-02-13T02:14:50.396Z,17.00
2023-02-13T02:17:20.076Z,17.00
2023-02-13T02:20:00.301Z,17.00
2023-02-13T02:23:03.256Z,17.00
2023-02-13T02:26:15.766Z,16.90
2023-02-13T02:28:58.857Z,17.10
2023-02-13T02:34:44.419Z,17.20
2023-02-13T02:37:19.400Z,17.20
2023-02-13T02:39:52.810Z,17.10
2023-02-13T02:42:25.792Z,17.10
2023-02-13T02:44:57.663Z,17.10
2023-02-13T02:47:44.557Z,17.10
2023-02-13T02:50:18.157Z,17.00
2023-02-13T02:52:53.067Z,17.00
2023-02-13T02:55:34.428Z,17.00
2023-02-13T02:58:23.206Z,17.00
2023-02-13T03:01:08.468Z,17.00
2023-02-13T03:03:53.906Z,17.00
2023-02-13T03:06:24.687Z,17.00
2023-02-13T03:09:12.626Z,16.90
2023-02-13T03:11:57.337Z,16.90
2023-02-13T03:14:26.457Z,17.00
2023-02-13T03:17:11.985Z,17.10
2023-02-13T03:20:09.452Z,17.20
2023-02-13T03:22:42.947Z,17.20
2023-02-13T03:25:13.531Z,17.20
2023-02-13T03:28:03.641Z,17.10
2023-02-13T03:30:36.814Z,17.10
2023-02-13T03:33:11.959Z,17.10
2023-02-13T03:36:00.182Z,17.10
2023-02-13T03:38:34.274Z,17.10
2023-02-13T03:41:22.389Z,17.00
2023-02-13T03:44:09.712Z,17.00
2023-02-13T03:46:38.709Z,17.00
2023-02-13T03:49:24.805Z,17.00
2023-02-13T03:51:54.609Z,17.00
2023-02-13T03:54:42.678Z,17.00
2023-02-13T03:57:28.248Z,16.90
2023-02-13T03:59:56.168Z,16.90
2023-02-13T04:02:25.712Z,16.90
2023-02-13T04:04:55.409Z,17.00
2023-02-13T04:07:30.637Z,17.00
2023-02-13T04:10:00.872Z,17.00
2023-02-13T04:12:34.093Z,16.90
2023-02-13T04:15:04.133Z,16.90
2023-02-13T04:17:33.652Z,16.90
2023-02-13T04:20:01.553Z,17.00
2023-02-13T04:22:29.519Z,17.10
2023-02-13T04:24:57.448Z,17.20
2023-02-13T04:27:26.731Z,17.20
2023-02-13T04:29:54.595Z,17.20
2023-02-13T04:32:22.623Z,17.20
2023-02-13T04:34:50.500Z,17.20
2023-02-13T04:37:18.501Z,17.10
2023-02-13T04:39:46.360Z,17.10
2023-02-13T04:42:14.236Z,17.10
2023-02-13T04:44:43.527Z,17.10
2023-02-13T04:47:11.421Z,17.00
2023-02-13T04:49:39.396Z,17.00
2023-02-13T04:52:07.291Z,17.00
2023-02-13T04:54:35.275Z,17.00
2023-02-13T04:57:03.226Z,17.00
2023-02-13T04:59:31.215Z,17.00
2023-02-13T05:02:00.501Z,16.90
2023-02-13T05:04:28.893Z,16.90
2023-02-13T05:06:56.900Z,16.90
2023-02-13T05:09:24.751Z,17.00
2023-02-13T05:11:53.705Z,17.10
2023-02-13T05:14:21.771Z,17.10
2023-02-13T05:16:50.219Z,17.10
2023-02-13T05:19:19.453Z,17.10
2023-02-13T05:22:04.907Z,17.00
2023-02-13T05:24:32.878Z,17.00
2023-02-13T05:27:00.808Z,17.00
2023-02-13T05:29:27.700Z,17.00
2023-02-13T05:31:56.564Z,17.00
2023-02-13T05:34:26.930Z,16.90
2023-02-13T05:36:55.166Z,16.90
2023-02-13T05:39:23.259Z,16.90
2023-02-13T05:41:51.283Z,16.90
2023-02-13T05:44:19.180Z,16.90
2023-02-13T05:46:47.164Z,16.90
2023-02-13T05:49:15.522Z,16.90
2023-02-13T05:51:46.396Z,16.90
2023-02-13T05:54:14.380Z,16.90
2023-02-13T05:56:42.334Z,16.90
2023-02-13T05:59:10.269Z,17.10
2023-02-13T06:01:38.168Z,17.20
2023-02-13T06:04:06.200Z,17.20
2023-02-13T06:06:34.166Z,17.20
2023-02-13T06:09:03.391Z,17.10
2023-02-13T06:11:31.300Z,17.10
2023-02-13T06:13:59.210Z,17.10
2023-02-13T06:16:27.146Z,17.10
2023-02-13T06:18:55.068Z,17.10
2023-02-13T06:21:22.950Z,17.00
2023-02-13T06:23:50.806Z,17.00
2023-02-13T06:26:22.241Z,17.00
2023-02-13T06:28:50.165Z,17.00
2023-02-13T06:31:18.274Z,17.00
2023-02-13T06:33:46.239Z,17.00
2023-02-13T06:36:14.175Z,17.00
2023-02-13T06:38:42.052Z,16.90
2023-02-13T06:41:09.993Z,16.90
2023-02-13T06:43:40.796Z,16.90
2023-02-13T06:46:09.183Z,17.00
2023-02-13T06:48:37.148Z,17.00
2023-02-13T06:51:05.320Z,17.00
2023-02-13T06:53:33.252Z,16.90
2023-02-13T06:56:03.789Z,16.90
2023-02-13T06:58:31.674Z,16.90
2023-02-13T07:01:01.119Z,17.00
2023-02-13T07:03:29.159Z,17.10
2023-02-13T07:05:58.289Z,17.20
2023-02-13T07:08:26.170Z,17.20
2023-02-13T07:10:54.061Z,17.20
2023-02-13T07:13:21.959Z,17.20
2023-02-13T07:15:49.930Z,17.10
2023-02-13T07:18:19.281Z,17.10
2023-02-13T07:20:47.145Z,17.10
2023-02-13T07:23:15.084Z,17.10
2023-02-13T07:25:42.960Z,17.00
2023-02-13T07:28:11.168Z,17.00
2023-02-13T07:30:39.211Z,17.00
2023-02-13T07:33:07.121Z,17.00
2023-02-13T07:35:38.409Z,17.00
2023-02-13T07:38:06.502Z,17.00
2023-02-13T07:40:34.493Z,16.90
2023-02-13T07:43:02.789Z,16.90
2023-02-13T07:45:30.696Z,16.90
2023-02-13T07:47:59.708Z,16.90
2023-02-13T07:50:27.643Z,17.00
2023-02-13T07:52:57.396Z,17.10
2023-02-13T07:55:25.404Z,17.20
2023-02-13T07:57:53.317Z,17.20
2023-02-13T08:00:22.165Z,17.10
2023-02-13T08:02:50.052Z,17.10
2023-02-13T08:05:18.144Z,17.10
2023-02-13T08:07:46.056Z,17.10
2023-02-13T08:10:34.165Z,17.10
2023-02-13T08:13:02.059Z,17.10
2023-02-13T08:15:29.938Z,17.00
2023-02-13T08:17:57.807Z,17.00
2023-02-13T08:20:25.689Z,17.00
2023-02-13T08:22:53.689Z,17.00
2023-02-13T08:25:22.971Z,17.00
2023-02-13T08:27:50.819Z,17.00
2023-02-13T08:30:18.988Z,17.00
2023-02-13T08:32:54.121Z,17.00
2023-02-13T08:35:22.852Z,17.00
2023-02-13T08:37:51.062Z,17.00
2023-02-13T08:40:19.271Z,17.10
2023-02-13T08:42:48.577Z,17.20
2023-02-13T08:45:16.561Z,17.20
2023-02-13T08:47:44.434Z,17.20
2023-02-13T08:50:12.579Z,17.10
2023-02-13T08:52:40.484Z,17.10
2023-02-13T08:55:09.101Z,17.10
2023-02-13T08:57:37.015Z,17.10
2023-02-13T09:00:07.573Z,17.10
2023-02-13T09:02:35.480Z,17.00
2023-02-13T09:05:03.445Z,17.00
2023-02-13T09:07:31.375Z,17.00
2023-02-13T09:09:59.264Z,17.00
2023-02-13T09:12:27.185Z,17.00
2023-02-13T09:14:55.053Z,17.00
2023-02-13T09:17:24.316Z,17.00
2023-02-13T09:19:52.195Z,17.00
2023-02-13T09:22:20.424Z,17.00
2023-02-13T09:24:48.372Z,17.00
2023-02-13T09:27:16.306Z,17.00
2023-02-13T09:29:44.277Z,17.00
2023-02-13T09:32:12.299Z,17.00
2023-02-13T09:34:41.556Z,17.00
2023-02-13T09:37:09.452Z,17.00
2023-02-13T09:39:37.360Z,17.00
2023-02-13T09:42:06.053Z,17.10
2023-02-13T09:44:37.568Z,17.20
2023-02-13T09:47:07.432Z,17.30
2023-02-13T09:49:37.965Z,17.30
2023-02-13T09:52:07.321Z,17.20
2023-02-13T09:54:35.725Z,17.20
2023-02-13T09:57:07.094Z,17.20
2023-02-13T09:59:58.116Z,17.20
2023-02-13T10:02:55.460Z,17.20
2023-02-13T10:05:31.720Z,17.10
2023-02-13T10:08:02.608Z,17.10
2023-02-13T10:10:34.385Z,17.10
2023-02-13T10:13:23.422Z,17.10
2023-02-13T10:15:54.587Z,17.10
2023-02-13T10:18:23.462Z,17.10
2023-02-13T10:20:52.978Z,17.10
2023-02-13T10:23:25.523Z,17.00
2023-02-13T10:25:55.885Z,17.00
2023-02-13T10:28:30.771Z,17.00
2023-02-13T10:31:00.947Z,17.00
2023-02-13T10:33:30.308Z,17.10
2023-02-13T10:36:05.424Z,17.10
2023-02-13T10:38:36.278Z,17.10
2023-02-13T10:41:24.224Z,17.00
2023-02-13T10:44:01.245Z,17.00
2023-02-13T10:46:31.818Z,17.10
2023-02-13T10:49:05.884Z,17.20
2023-02-13T10:51:36.421Z,17.20
2023-02-13T10:54:17.651Z,17.20
2023-02-13T10:56:46.028Z,17.20
2023-02-13T10:59:22.859Z,17.20
2023-02-13T11:01:53.425Z,17.20
2023-02-13T11:04:21.446Z,17.20
2023-02-13T11:06:54.866Z,17.20
2023-02-13T11:09:24.200Z,17.10
2023-02-13T11:11:52.143Z,17.10
2023-02-13T11:14:20.940Z,17.10
2023-02-13T11:16:55.095Z,17.10
2023-02-13T11:19:25.859Z,17.10
2023-02-13T11:21:58.856Z,17.10
2023-02-13T11:24:28.543Z,17.10
2023-02-13T11:27:00.102Z,17.10
2023-02-13T11:29:29.223Z,17.10
2023-02-13T11:32:12.648Z,17.10
2023-02-13T11:34:40.749Z,17.20
2023-02-13T11:37:20.290Z,17.30
2023-02-13T11:39:51.457Z,17.30
2023-02-13T11:42:22.650Z,17.40
2023-02-13T11:44:52.625Z,17.30
2023-02-13T11:47:31.963Z,17.30
2023-02-13T11:49:59.860Z,17.30
2023-02-13T11:52:29.354Z,17.30
2023-02-13T11:54:59.396Z,17.30
2023-02-13T11:57:31.114Z,17.30
2023-02-13T11:59:59.435Z,17.30
2023-02-13T12:02:28.366Z,17.20
2023-02-13T12:04:56.811Z,17.30
2023-02-13T12:07:26.307Z,17.30
2023-02-13T12:10:01.902Z,17.20
2023-02-13T12:12:34.247Z,17.30
2023-02-13T12:15:03.539Z,17.20
2023-02-13T12:17:32.740Z,17.20
2023-02-13T12:20:00.790Z,17.20
2023-02-13T12:22:41.046Z,17.30
2023-02-13T12:25:22.599Z,17.30
2023-02-13T12:27:54.656Z,17.40
2023-02-13T12:31:05.910Z,17.40
2023-02-13T12:33:42.851Z,17.30
2023-02-13T12:36:12.619Z,17.30
2023-02-13T12:38:50.234Z,17.30
2023-02-13T12:41:21.182Z,17.30
2023-02-13T12:44:17.158Z,17.30
2023-02-13T12:46:53.681Z,17.30
2023-02-13T12:49:45.442Z,17.30
2023-02-13T12:52:22.895Z,17.30
2023-02-13T12:54:55.928Z,17.40
2023-02-13T12:57:37.798Z,17.40
2023-02-13T13:00:18.388Z,17.40
2023-02-13T13:03:11.175Z,17.40
2023-02-13T13:06:08.949Z,17.40
2023-02-13T13:08:47.106Z,17.40
2023-02-13T13:11:29.423Z,17.40
2023-02-13T13:14:02.545Z,17.40
2023-02-13T13:16:34.494Z,17.40
2023-02-13T13:19:07.252Z,17.30
2023-02-13T13:21:40.355Z,17.30
2023-02-13T13:24:14.812Z,17.30
2023-02-13T13:26:43.283Z,17.30
2023-02-13T13:29:16.817Z,17.30
2023-02-13T13:31:53.922Z,17.30
2023-02-13T13:34:23.790Z,17.30
2023-02-13T13:36:54.492Z,17.30
2023-02-13T13:39:31.902Z,17.30
2023-02-13T13:42:02.932Z,17.30
2023-02-13T13:44:50.439Z,17.30
2023-02-13T13:47:25.273Z,17.30
2023-02-13T13:49:54.014Z,17.30
2023-02-13T13:52:26.608Z,17.30
2023-02-13T13:54:54.882Z,17.30
2023-02-13T13:57:23.398Z,17.40
2023-02-13T14:00:27.040Z,17.50
2023-02-13T14:03:35.493Z,17.50
2023-02-13T14:06:08.592Z,17.50
2023-02-13T14:09:04.682Z,17.50
2023-02-13T14:11:45.731Z,17.50
2023-02-13T14:14:52.592Z,17.50
2023-02-13T14:17:50.356Z,17.40
2023-02-13T14:20:37.675Z,17.40
2023-02-13T14:23:20.202Z,17.40
2023-02-13T14:25:48.278Z,17.40
2023-02-13T14:28:24.822Z,17.40
2023-02-13T14:30:55.659Z,17.30
2023-02-13T14:33:27.113Z,17.40
2023-02-13T14:36:06.031Z,17.40
2023-02-13T14:38:33.935Z,17.30
2023-02-13T14:41:01.810Z,17.30
2023-02-13T14:43:34.863Z,17.40
2023-02-13T14:46:10.148Z,17.40
2023-02-13T14:48:41.540Z,17.40
2023-02-13T14:51:15.885Z,17.40
2023-02-13T14:53:48.922Z,17.40
2023-02-13T14:56:18.815Z,17.40
2023-02-13T14:58:48.547Z,17.40
2023-02-13T15:01:22.370Z,17.40
2023-02-13T15:03:54.524Z,17.30
2023-02-13T15:06:25.743Z,17.30
2023-02-13T15:08:53.931Z,17.30
2023-02-13T15:11:38.057Z,17.30
2023-02-13T15:14:23.329Z,17.30
2023-02-13T15:16:54.171Z,17.30
2023-02-13T15:19:22.578Z,17.30
2023-02-13T15:21:56.615Z,17.30
2023-02-13T15:24:24.731Z,17.30
2023-02-13T15:27:00.100Z,17.20
2023-02-13T15:29:35.184Z,17.30
2023-02-13T15:32:21.854Z,17.40
2023-02-13T15:34:49.839Z,17.40
2023-02-13T15:37:23.251Z,17.40
2023-02-13T15:39:51.222Z,17.40
2023-02-13T15:42:19.131Z,17.40
2023-02-13T15:44:48.136Z,17.40
2023-02-13T15:47:18.777Z,17.40
2023-02-13T15:49:47.554Z,17.40
2023-02-13T15:52:17.695Z,17.30
2023-02-13T15:54:50.583Z,17.30
2023-02-13T15:57:18.546Z,17.30
2023-02-13T15:59:46.595Z,17.30
2023-02-13T16:02:17.362Z,17.30
2023-02-13T16:04:45.282Z,17.30
2023-02-13T16:07:13.544Z,17.30
2023-02-13T16:09:41.435Z,17.30
2023-02-13T16:12:18.973Z,17.20
2023-02-13T16:14:49.590Z,17.30
2023-02-13T16:17:19.048Z,17.30
2023-02-13T16:19:52.418Z,17.40
2023-02-13T16:22:27.109Z,17.30
2023-02-13T16:24:56.605Z,17.40
2023-02-13T16:27:27.507Z,17.40
2023-02-13T16:29:58.278Z,17.30
2023-02-13T16:32:29.244Z,17.30
2023-02-13T16:34:57.332Z,17.30
2023-02-13T16:37:28.478Z,17.30
2023-02-13T16:39:56.360Z,17.30
2023-02-13T16:42:26.402Z,17.30
2023-02-13T16:45:24.532Z,17.20
2023-02-13T16:48:02.394Z,17.30
2023-02-13T16:50:30.368Z,17.30
2023-02-13T16:53:01.811Z,17.30
2023-02-13T16:55:31.616Z,17.30
2023-02-13T16:58:04.110Z,17.20
2023-02-13T17:00:32.185Z,17.20
2023-02-13T17:03:00.109Z,17.30
2023-02-13T17:05:28.685Z,17.40
2023-02-13T17:07:58.650Z,17.40
2023-02-13T17:10:28.301Z,17.50
2023-02-13T17:12:56.984Z,17.50
2023-02-13T17:15:27.051Z,17.50
2023-02-13T17:17:55.143Z,17.40
2023-02-13T17:20:24.278Z,17.40
2023-02-13T17:22:53.397Z,17.40
2023-02-13T17:25:22.496Z,17.40
2023-02-13T17:27:50.554Z,17.30
2023-02-13T17:30:20.850Z,17.30
2023-02-13T17:32:50.638Z,17.30
2023-02-13T17:35:18.686Z,17.30
2023-02-13T17:37:46.590Z,17.30
2023-02-13T17:40:18.339Z,17.30
2023-02-13T17:42:46.811Z,17.30
2023-02-13T17:45:15.260Z,17.30
2023-02-13T17:47:43.196Z,17.30
2023-02-13T17:50:12.967Z,17.30
2023-02-13T17:52:40.983Z,17.40
2023-02-13T17:55:16.087Z,17.50
2023-02-13T17:57:44.216Z,17.50
2023-02-13T18:00:12.730Z,17.40
2023-02-13T18:02:42.487Z,17.40
2023-02-13T18:05:11.821Z,17.40
2023-02-13T18:07:41.444Z,17.40
2023-02-13T18:10:13.110Z,17.40
2023-02-13T18:12:41.546Z,17.40
2023-02-13T18:15:10.226Z,17.40
2023-02-13T18:17:38.316Z,17.40
2023-02-13T18:20:07.479Z,17.30
2023-02-13T18:22:36.806Z,17.40
2023-02-13T18:25:04.953Z,17.40
2023-02-13T18:27:32.856Z,17.40
2023-02-13T18:30:00.793Z,17.40
2023-02-13T18:32:28.682Z,17.30
2023-02-13T18:34:56.573Z,17.30
2023-02-13T18:37:24.494Z,17.40
2023-02-13T18:39:53.764Z,17.40
2023-02-13T18:42:21.749Z,17.30
2023-02-13T18:44:49.653Z,17.30
2023-02-13T18:47:17.905Z,17.30
2023-02-13T18:49:46.361Z,17.30
2023-02-13T18:52:14.265Z,17.40
2023-02-13T18:54:42.139Z,17.50
2023-02-13T18:57:11.437Z,17.50
2023-02-13T18:59:39.332Z,17.60
2023-02-13T19:02:07.248Z,17.60
2023-02-13T19:04:35.806Z,17.50
2023-02-13T19:07:03.680Z,17.50
2023-02-13T19:09:31.554Z,17.50
2023-02-13T19:11:59.488Z,17.50
2023-02-13T19:14:28.776Z,17.40
2023-02-13T19:16:56.920Z,17.40
2023-02-13T19:19:26.396Z,17.40
2023-02-13T19:21:54.355Z,17.40
2023-02-13T19:24:22.233Z,17.40
2023-02-13T19:26:50.097Z,17.40
2023-02-13T19:29:18.151Z,17.40
2023-02-13T19:31:47.456Z,17.40
2023-02-13T19:34:15.398Z,17.40
2023-02-13T19:36:43.338Z,17.40
2023-02-13T19:39:14.233Z,17.40
2023-02-13T19:41:42.159Z,17.50
2023-02-13T19:44:10.140Z,17.50
2023-02-13T19:46:38.328Z,17.50
2023-02-13T19:49:07.629Z,17.50
2023-02-13T19:51:35.791Z,17.50
2023-02-13T19:54:05.180Z,17.50
2023-02-13T19:56:33.393Z,17.50
2023-02-13T19:59:01.303Z,17.50
2023-02-13T20:01:30.302Z,17.40
2023-02-13T20:03:58.287Z,17.40
2023-02-13T20:06:28.844Z,17.40
2023-02-13T20:08:58.473Z,17.40
2023-02-13T20:11:26.562Z,17.40
2023-02-13T20:13:55.512Z,17.40
2023-02-13T20:16:23.608Z,17.40
2023-02-13T20:18:51.677Z,17.30
2023-02-13T20:21:19.846Z,17.30
2023-02-13T20:23:50.993Z,17.30
2023-02-13T20:26:19.084Z,17.40
2023-02-13T20:28:47.863Z,17.40
2023-02-13T20:31:16.753Z,17.30
2023-02-13T20:33:44.941Z,17.40
2023-02-13T20:36:14.096Z,17.30
2023-02-13T20:38:42.074Z,17.30
2023-02-13T20:41:12.207Z,17.40
2023-02-13T20:43:40.100Z,17.50
2023-02-13T20:46:08.335Z,17.60
2023-02-13T20:48:36.831Z,17.60
2023-02-13T20:51:05.844Z,17.60
2023-02-13T20:53:33.842Z,17.60
2023-02-13T20:56:05.226Z,17.50
2023-02-13T20:58:34.554Z,17.50
2023-02-13T21:01:02.904Z,17.50
2023-02-13T21:03:30.977Z,17.50
2023-02-13T21:05:58.904Z,17.50
2023-02-13T21:08:26.833Z,17.40
2023-02-13T21:10:54.784Z,17.40
2023-02-13T21:13:22.698Z,17.40
2023-02-13T21:15:53.708Z,17.40
2023-02-13T21:18:21.821Z,17.40
2023-02-13T21:20:49.841Z,17.40
2023-02-13T21:23:17.707Z,17.40
2023-02-13T21:25:45.682Z,17.30
2023-02-13T21:28:13.578Z,17.40
2023-02-13T21:30:43.033Z,17.50
2023-02-13T21:33:12.340Z,17.50
2023-02-13T21:35:40.262Z,17.50
2023-02-13T21:38:08.456Z,17.50
2023-02-13T21:40:36.348Z,17.40
2023-02-13T21:43:04.458Z,17.40
2023-02-13T21:45:32.860Z,17.40
2023-02-13T21:48:00.770Z,17.40
2023-02-13T21:50:30.063Z,17.40
2023-02-13T21:52:57.963Z,17.40
2023-02-13T21:55:28.096Z,17.40
2023-02-13T21:57:56.304Z,17.40
2023-02-13T22:00:24.648Z,17.40
2023-02-13T22:02:52.582Z,17.40
2023-02-13T22:05:20.585Z,17.30
2023-02-13T22:08:03.734Z,17.40
2023-02-13T22:10:31.646Z,17.30
2023-02-13T22:12:59.961Z,17.30
2023-02-13T22:15:27.836Z,17.30
2023-02-13T22:17:55.731Z,17.30
2023-02-13T22:20:23.656Z,17.40
2023-02-13T22:22:53.242Z,17.30
2023-02-13T22:25:21.405Z,17.30
2023-02-13T22:27:49.518Z,17.30
2023-02-13T22:30:17.683Z,17.40
2023-02-13T22:32:45.644Z,17.50
2023-02-13T22:35:13.531Z,17.60
2023-02-13T22:37:41.452Z,17.60
2023-02-13T22:40:11.482Z,17.60
2023-02-13T22:42:39.403Z,17.60
2023-02-13T22:45:07.925Z,17.60
2023-02-13T22:47:35.842Z,17.60
2023-02-13T22:50:03.767Z,17.50
2023-02-13T22:52:31.878Z,17.50
2023-02-13T22:54:59.768Z,17.40
2023-02-13T22:57:28.992Z,17.40
2023-02-13T22:59:56.879Z,17.40
2023-02-13T23:02:24.790Z,17.40
2023-02-13T23:04:52.737Z,17.40
2023-02-13T23:07:20.948Z,17.40
2023-02-13T23:09:48.831Z,17.30
2023-02-13T23:12:42.394Z,17.30
2023-02-13T23:15:12.578Z,17.30
2023-02-13T23:18:06.724Z,17.40
2023-02-13T23:20:34.639Z,17.50
2023-02-13T23:23:04.723Z,17.50
2023-02-13T23:25:32.723Z,17.50
2023-02-13T23:28:00.613Z,17.50
2023-02-13T23:30:30.144Z,17.50
2023-02-13T23:32:58.504Z,17.40
2023-02-13T23:35:26.435Z,17.50
2023-02-13T23:37:54.617Z,17.40
2023-02-13T23:40:22.726Z,17.40
2023-02-13T23:42:50.590Z,17.40
2023-02-13T23:45:18.652Z,17.40
2023-02-13T23:47:47.907Z,17.40
2023-02-13T23:50:15.797Z,17.40
2023-02-13T23:52:43.727Z,17.40
2023-02-13T23:55:11.616Z,17.40
2023-02-13T23:57:39.536Z,17.40
